sensor_id;sensor_type;location;lat;lon;timestamp;pressure;altitude;pressure_sealevel;temperature;humidity
23589;BME280;11972;48.078;11.876;2024-01-16T00:03:27;94754.69;;;-3.09;100.00
23589;BME280;11972;48.078;11.876;2024-01-16T00:07:27;94761.75;;;-3.11;100.00
23589;BME280;11972;48.078;11.876;2024-01-16T00:11:27;94752.34;;;-3.12;100.00
23589;BME280;11972;48.078;11.876;2024-01-16T00:15:28;94754.09;;;-3.13;100.00
23589;BME280;11972;48.078;11.876;2024-01-16T00:19:28;94757.63;;;-3.14;100.00
23589;BME280;11972;48.078;11.876;2024-01-16T00:23:29;94756.22;;;-3.18;100.00
23589;BME280;11972;48.078;11.876;2024-01-16T00:27:32;94762.31;;;-3.19;100.00
23589;BME280;11972;48.078;11.876;2024-01-16T00:31:32;94763.97;;;-3.18;100.00
23589;BME280;11972;48.078;11.876;2024-01-16T00:35:33;94762.31;;;-3.19;100.00
23589;BME280;11972;48.078;11.876;2024-01-16T00:39:33;94773.34;;;-3.17;100.00
23589;BME280;11972;48.078;11.876;2024-01-16T00:43:33;94778.28;;;-3.14;100.00
23589;BME280;11972;48.078;11.876;2024-01-16T00:47:35;94785.94;;;-3.12;100.00
23589;BME280;11972;48.078;11.876;2024-01-16T00:51:35;94790.03;;;-3.10;100.00
23589;BME280;11972;48.078;11.876;2024-01-16T00:55:35;94795.19;;;-3.10;100.00
23589;BME280;11972;48.078;11.876;2024-01-16T00:59:36;94795.19;;;-3.10;100.00
23589;BME280;11972;48.078;11.876;2024-01-16T01:03:37;94803.75;;;-3.09;100.00
23589;BME280;11972;48.078;11.876;2024-01-16T01:07:37;94802.84;;;-3.08;100.00
23589;BME280;11972;48.078;11.876;2024-01-16T01:11:38;94814.69;;;-3.06;100.00
23589;BME280;11972;48.078;11.876;2024-01-16T01:15:38;94813.75;;;-3.05;100.00
23589;BME280;11972;48.078;11.876;2024-01-16T01:19:39;94814.59;;;-3.04;100.00
23589;BME280;11972;48.078;11.876;2024-01-16T01:23:39;94822.22;;;-3.03;100.00
23589;BME280;11972;48.078;11.876;2024-01-16T01:27:39;94827.38;;;-3.03;100.00
23589;BME280;11972;48.078;11.876;2024-01-16T01:31:40;94830.91;;;-3.04;100.00
23589;BME280;11972;48.078;11.876;2024-01-16T01:35:40;94831.00;;;-3.05;100.00
23589;BME280;11972;48.078;11.876;2024-01-16T01:39:41;94841.47;;;-3.07;100.00
23589;BME280;11972;48.078;11.876;2024-01-16T01:43:42;94850.97;;;-3.07;100.00
23589;BME280;11972;48.078;11.876;2024-01-16T01:47:42;94850.97;;;-3.07;100.00
23589;BME280;11972;48.078;11.876;2024-01-16T01:51:43;94846.84;;;-3.10;100.00
23589;BME280;11972;48.078;11.876;2024-01-16T01:55:44;94853.66;;;-3.09;100.00
23589;BME280;11972;48.078;11.876;2024-01-16T01:59:45;94846.84;;;-3.10;100.00
23589;BME280;11972;48.078;11.876;2024-01-16T02:03:45;94862.38;;;-3.10;100.00
23589;BME280;11972;48.078;11.876;2024-01-16T02:07:46;94859.09;;;-3.12;100.00
23589;BME280;11972;48.078;11.876;2024-01-16T02:11:46;94858.25;;;-3.12;100.00
23589;BME280;11972;48.078;11.876;2024-01-16T02:15:47;94862.38;;;-3.10;100.00
23589;BME280;11972;48.078;11.876;2024-01-16T02:19:47;94862.38;;;-3.10;100.00
23589;BME280;11972;48.078;11.876;2024-01-16T02:23:48;94857.66;;;-3.16;100.00
23589;BME280;11972;48.078;11.876;2024-01-16T02:27:48;94854.84;;;-3.24;100.00
23589;BME280;11972;48.078;11.876;2024-01-16T02:31:49;94860.44;;;-3.30;100.00
23589;BME280;11972;48.078;11.876;2024-01-16T02:35:49;94861.50;;;-3.33;100.00
23589;BME280;11972;48.078;11.876;2024-01-16T02:39:49;94855.53;;;-3.33;100.00
23589;BME280;11972;48.078;11.876;2024-01-16T02:43:50;94865.00;;;-3.34;100.00
23589;BME280;11972;48.078;11.876;2024-01-16T02:47:50;94860.78;;;-3.35;100.00
23589;BME280;11972;48.078;11.876;2024-01-16T02:51:50;94870.44;;;-3.37;100.00
23589;BME280;11972;48.078;11.876;2024-01-16T02:55:51;94863.94;;;-3.54;100.00
23589;BME280;11972;48.078;11.876;2024-01-16T02:59:52;94867.09;;;-3.85;100.00
23589;BME280;11972;48.078;11.876;2024-01-16T03:03:52;94856.81;;;-4.22;100.00
23589;BME280;11972;48.078;11.876;2024-01-16T03:07:52;94857.53;;;-4.57;100.00
23589;BME280;11972;48.078;11.876;2024-01-16T03:11:53;94863.88;;;-4.86;100.00
23589;BME280;11972;48.078;11.876;2024-01-16T03:15:53;94856.81;;;-5.08;100.00
23589;BME280;11972;48.078;11.876;2024-01-16T03:19:54;94856.19;;;-5.25;100.00
23589;BME280;11972;48.078;11.876;2024-01-16T03:23:55;94865.66;;;-5.38;100.00
23589;BME280;11972;48.078;11.876;2024-01-16T03:27:55;94869.88;;;-5.50;100.00
23589;BME280;11972;48.078;11.876;2024-01-16T03:31:55;94872.00;;;-5.56;100.00
23589;BME280;11972;48.078;11.876;2024-01-16T03:35:56;94869.84;;;-5.62;100.00
23589;BME280;11972;48.078;11.876;2024-01-16T03:39:56;94873.84;;;-5.71;100.00
23589;BME280;11972;48.078;11.876;2024-01-16T03:43:57;94876.28;;;-5.82;100.00
23589;BME280;11972;48.078;11.876;2024-01-16T03:47:58;94867.84;;;-5.84;100.00
23589;BME280;11972;48.078;11.876;2024-01-16T03:51:58;94878.13;;;-5.84;100.00
23589;BME280;11972;48.078;11.876;2024-01-16T03:55:59;94869.50;;;-5.83;100.00
23589;BME280;11972;48.078;11.876;2024-01-16T03:59:59;94869.59;;;-5.85;100.00
23589;BME280;11972;48.078;11.876;2024-01-16T04:03:59;94868.06;;;-5.87;100.00
23589;BME280;11972;48.078;11.876;2024-01-16T04:08:00;94866.59;;;-5.91;100.00
23589;BME280;11972;48.078;11.876;2024-01-16T04:12:00;94858.41;;;-5.96;100.00
23589;BME280;11972;48.078;11.876;2024-01-16T04:16:01;94857.22;;;-6.05;100.00
23589;BME280;11972;48.078;11.876;2024-01-16T04:20:01;94861.84;;;-6.10;100.00
23589;BME280;11972;48.078;11.876;2024-01-16T04:24:01;94864.69;;;-6.15;100.00
23589;BME280;11972;48.078;11.876;2024-01-16T04:28:02;94867.84;;;-6.24;100.00
23589;BME280;11972;48.078;11.876;2024-01-16T04:32:03;94864.59;;;-6.40;100.00
23589;BME280;11972;48.078;11.876;2024-01-16T04:36:05;94867.81;;;-6.51;100.00
23589;BME280;11972;48.078;11.876;2024-01-16T04:40:05;94876.75;;;-6.57;100.00
23589;BME280;11972;48.078;11.876;2024-01-16T04:44:06;94867.59;;;-6.61;100.00
23589;BME280;11972;48.078;11.876;2024-01-16T04:48:06;94872.72;;;-6.61;100.00
23589;BME280;11972;48.078;11.876;2024-01-16T04:52:08;94863.91;;;-6.57;100.00
23589;BME280;11972;48.078;11.876;2024-01-16T04:56:08;94876.22;;;-6.62;100.00
23589;BME280;11972;48.078;11.876;2024-01-16T05:00:09;94870.91;;;-6.73;100.00
23589;BME280;11972;48.078;11.876;2024-01-16T05:04:10;94865.97;;;-6.90;100.00
23589;BME280;11972;48.078;11.876;2024-01-16T05:08:10;94876.63;;;-7.11;100.00
23589;BME280;11972;48.078;11.876;2024-01-16T05:12:10;94870.38;;;-7.35;100.00
23589;BME280;11972;48.078;11.876;2024-01-16T05:16:11;94879.13;;;-7.54;100.00
23589;BME280;11972;48.078;11.876;2024-01-16T05:20:11;94886.25;;;-7.73;100.00
23589;BME280;11972;48.078;11.876;2024-01-16T05:24:11;94882.63;;;-7.85;100.00
23589;BME280;11972;48.078;11.876;2024-01-16T05:28:12;94876.50;;;-7.82;100.00
23589;BME280;11972;48.078;11.876;2024-01-16T05:32:13;94876.31;;;-7.79;100.00
23589;BME280;11972;48.078;11.876;2024-01-16T05:36:14;94878.78;;;-7.78;100.00
23589;BME280;11972;48.078;11.876;2024-01-16T05:40:14;94872.84;;;-7.78;100.00
23589;BME280;11972;48.078;11.876;2024-01-16T05:44:14;94868.75;;;-7.81;100.00
23589;BME280;11972;48.078;11.876;2024-01-16T05:48:15;94874.13;;;-7.85;100.00
23589;BME280;11972;48.078;11.876;2024-01-16T05:52:16;94871.72;;;-7.88;100.00
23589;BME280;11972;48.078;11.876;2024-01-16T05:56:16;94872.66;;;-7.89;100.00
23589;BME280;11972;48.078;11.876;2024-01-16T06:00:17;94874.63;;;-7.94;100.00
23589;BME280;11972;48.078;11.876;2024-01-16T06:04:18;94883.50;;;-8.00;100.00
23589;BME280;11972;48.078;11.876;2024-01-16T06:08:19;94876.06;;;-8.05;100.00
23589;BME280;11972;48.078;11.876;2024-01-16T06:12:20;94873.78;;;-8.09;100.00
23589;BME280;11972;48.078;11.876;2024-01-16T06:16:20;94877.41;;;-8.13;100.00
23589;BME280;11972;48.078;11.876;2024-01-16T06:20:20;94878.41;;;-8.16;100.00
23589;BME280;11972;48.078;11.876;2024-01-16T06:24:21;94874.91;;;-8.15;100.00
23589;BME280;11972;48.078;11.876;2024-01-16T06:28:21;94886.19;;;-8.17;100.00
23589;BME280;11972;48.078;11.876;2024-01-16T06:32:21;94889.56;;;-8.17;100.00
23589;BME280;11972;48.078;11.876;2024-01-16T06:36:22;94878.41;;;-8.16;100.00
23589;BME280;11972;48.078;11.876;2024-01-16T06:40:22;94876.41;;;-8.11;100.00
23589;BME280;11972;48.078;11.876;2024-01-16T06:44:22;94873.84;;;-8.11;100.00
23589;BME280;11972;48.078;11.876;2024-01-16T06:48:23;94874.75;;;-8.12;100.00
23589;BME280;11972;48.078;11.876;2024-01-16T06:52:23;94878.06;;;-8.10;100.00
23589;BME280;11972;48.078;11.876;2024-01-16T06:56:24;94881.19;;;-8.05;100.00
23589;BME280;11972;48.078;11.876;2024-01-16T07:00:25;94872.44;;;-8.01;100.00
23589;BME280;11972;48.078;11.876;2024-01-16T07:04:27;94874.56;;;-7.93;100.00
23589;BME280;11972;48.078;11.876;2024-01-16T07:08:27;94869.19;;;-7.74;100.00
23589;BME280;11972;48.078;11.876;2024-01-16T07:12:27;94879.50;;;-7.60;100.00
23589;BME280;11972;48.078;11.876;2024-01-16T07:16:28;94882.66;;;-7.40;100.00
23589;BME280;11972;48.078;11.876;2024-01-16T07:20:28;94889.25;;;-7.22;100.00
23589;BME280;11972;48.078;11.876;2024-01-16T07:24:29;94883.94;;;-7.05;100.00
23589;BME280;11972;48.078;11.876;2024-01-16T07:28:29;94884.84;;;-6.91;100.00
23589;BME280;11972;48.078;11.876;2024-01-16T07:32:29;94889.25;;;-6.79;100.00
23589;BME280;11972;48.078;11.876;2024-01-16T07:36:30;94887.78;;;-6.69;100.00
23589;BME280;11972;48.078;11.876;2024-01-16T07:40:30;94895.28;;;-6.52;100.00
23589;BME280;11972;48.078;11.876;2024-01-16T07:44:31;94898.78;;;-6.26;100.00
23589;BME280;11972;48.078;11.876;2024-01-16T07:48:31;94892.19;;;-6.03;100.00
23589;BME280;11972;48.078;11.876;2024-01-16T07:52:32;94888.22;;;-5.81;100.00
23589;BME280;11972;48.078;11.876;2024-01-16T07:56:32;94879.72;;;-5.56;100.00
23589;BME280;11972;48.078;11.876;2024-01-16T08:00:33;94889.31;;;-5.45;100.00
23589;BME280;11972;48.078;11.876;2024-01-16T08:04:33;94878.22;;;-5.33;100.00
23589;BME280;11972;48.078;11.876;2024-01-16T08:08:34;94884.63;;;-5.13;100.00
23589;BME280;11972;48.078;11.876;2024-01-16T08:12:34;94880.72;;;-4.93;100.00
23589;BME280;11972;48.078;11.876;2024-01-16T08:16:34;94888.09;;;-4.76;100.00
23589;BME280;11972;48.078;11.876;2024-01-16T08:20:35;94889.72;;;-4.62;100.00
23589;BME280;11972;48.078;11.876;2024-01-16T08:24:35;94883.41;;;-4.45;100.00
23589;BME280;11972;48.078;11.876;2024-01-16T08:28:36;94888.63;;;-4.34;100.00
23589;BME280;11972;48.078;11.876;2024-01-16T08:32:36;94873.13;;;-4.21;100.00
23589;BME280;11972;48.078;11.876;2024-01-16T08:36:36;94878.41;;;-3.99;100.00
23589;BME280;11972;48.078;11.876;2024-01-16T08:40:37;94883.66;;;-3.77;100.00
23589;BME280;11972;48.078;11.876;2024-01-16T08:44:38;94892.06;;;-3.51;100.00
23589;BME280;11972;48.078;11.876;2024-01-16T08:48:39;94881.50;;;-3.23;100.00
23589;BME280;11972;48.078;11.876;2024-01-16T08:52:40;94879.31;;;-2.94;100.00
23589;BME280;11972;48.078;11.876;2024-01-16T08:56:42;94879.78;;;-2.67;100.00
23589;BME280;11972;48.078;11.876;2024-01-16T09:00:42;94878.38;;;-2.48;100.00
23589;BME280;11972;48.078;11.876;2024-01-16T09:04:42;94865.28;;;-2.25;100.00
23589;BME280;11972;48.078;11.876;2024-01-16T09:08:43;94868.28;;;-1.97;100.00
23589;BME280;11972;48.078;11.876;2024-01-16T09:12:44;94862.22;;;-1.75;100.00
23589;BME280;11972;48.078;11.876;2024-01-16T09:16:44;94855.47;;;-1.45;100.00
23589;BME280;11972;48.078;11.876;2024-01-16T09:20:45;94854.84;;;-1.17;100.00
23589;BME280;11972;48.078;11.876;2024-01-16T09:24:46;94858.13;;;-0.94;100.00
23589;BME280;11972;48.078;11.876;2024-01-16T09:28:47;94857.16;;;-0.72;100.00
23589;BME280;11972;48.078;11.876;2024-01-16T09:32:47;94863.66;;;-0.47;100.00
23589;BME280;11972;48.078;11.876;2024-01-16T09:36:47;94857.31;;;-0.23;100.00
23589;BME280;11972;48.078;11.876;2024-01-16T09:40:47;94856.28;;;-0.02;100.00
23589;BME280;11972;48.078;11.876;2024-01-16T09:44:48;94853.00;;;0.16;100.00
23589;BME280;11972;48.078;11.876;2024-01-16T09:48:50;94851.25;;;0.26;100.00
23589;BME280;11972;48.078;11.876;2024-01-16T09:52:53;94843.88;;;0.31;100.00
23589;BME280;11972;48.078;11.876;2024-01-16T09:56:54;94832.53;;;0.32;100.00
23589;BME280;11972;48.078;11.876;2024-01-16T10:00:58;94823.78;;;0.33;100.00
23589;BME280;11972;48.078;11.876;2024-01-16T10:04:59;94824.31;;;0.37;100.00
23589;BME280;11972;48.078;11.876;2024-01-16T10:08:59;94818.31;;;0.36;100.00
23589;BME280;11972;48.078;11.876;2024-01-16T10:13:00;94818.03;;;0.39;100.00
23589;BME280;11972;48.078;11.876;2024-01-16T10:17:02;94817.50;;;0.45;100.00
23589;BME280;11972;48.078;11.876;2024-01-16T10:21:20;94806.16;;;0.46;100.00
23589;BME280;11972;48.078;11.876;2024-01-16T10:25:21;94811.34;;;0.46;100.00
23589;BME280;11972;48.078;11.876;2024-01-16T10:29:22;94810.38;;;0.47;100.00
23589;BME280;11972;48.078;11.876;2024-01-16T10:33:26;94801.91;;;0.45;100.00
23589;BME280;11972;48.078;11.876;2024-01-16T10:37:27;94799.31;;;0.45;100.00
23589;BME280;11972;48.078;11.876;2024-01-16T10:41:28;94791.53;;;0.45;100.00
23589;BME280;11972;48.078;11.876;2024-01-16T10:45:29;94781.78;;;0.47;100.00
23589;BME280;11972;48.078;11.876;2024-01-16T10:49:29;94776.44;;;0.49;100.00
23589;BME280;11972;48.078;11.876;2024-01-16T10:53:32;94786.44;;;0.54;100.00
23589;BME280;11972;48.078;11.876;2024-01-16T10:57:33;94777.25;;;0.59;100.00
23589;BME280;11972;48.078;11.876;2024-01-16T11:01:34;94772.63;;;0.63;100.00
23589;BME280;11972;48.078;11.876;2024-01-16T11:05:36;94768.78;;;0.67;100.00
23589;BME280;11972;48.078;11.876;2024-01-16T11:09:37;94768.63;;;0.68;100.00
23589;BME280;11972;48.078;11.876;2024-01-16T11:13:39;94759.75;;;0.71;100.00
23589;BME280;11972;48.078;11.876;2024-01-16T11:17:43;94756.44;;;0.69;100.00
23589;BME280;11972;48.078;11.876;2024-01-16T11:21:44;94744.41;;;0.68;100.00
23589;BME280;11972;48.078;11.876;2024-01-16T11:25:45;94736.91;;;0.65;100.00
23589;BME280;11972;48.078;11.876;2024-01-16T11:29:49;94743.06;;;0.64;100.00
23589;BME280;11972;48.078;11.876;2024-01-16T11:33:50;94730.50;;;0.59;100.00
23589;BME280;11972;48.078;11.876;2024-01-16T11:37:50;94720.63;;;0.53;100.00
23589;BME280;11972;48.078;11.876;2024-01-16T11:45:52;94707.03;;;0.41;100.00
23589;BME280;11972;48.078;11.876;2024-01-16T11:50:09;94694.69;;;0.43;100.00
23589;BME280;11972;48.078;11.876;2024-01-16T11:54:11;94685.81;;;0.36;100.00
23589;BME280;11972;48.078;11.876;2024-01-16T12:02:52;94684.88;;;0.37;100.00
23589;BME280;11972;48.078;11.876;2024-01-16T12:07:00;94694.03;;;0.41;100.00
23589;BME280;11972;48.078;11.876;2024-01-16T12:11:00;94685.69;;;0.38;100.00
23589;BME280;11972;48.078;11.876;2024-01-16T12:15:00;94675.84;;;0.41;100.00
23589;BME280;11972;48.078;11.876;2024-01-16T12:19:05;94668.97;;;0.50;100.00
23589;BME280;11972;48.078;11.876;2024-01-16T12:23:07;94642.28;;;0.58;100.00
23589;BME280;11972;48.078;11.876;2024-01-16T12:27:07;94653.06;;;0.63;100.00
23589;BME280;11972;48.078;11.876;2024-01-16T12:31:08;94639.91;;;0.64;100.00
23589;BME280;11972;48.078;11.876;2024-01-16T12:35:08;94640.31;;;0.69;100.00
23589;BME280;11972;48.078;11.876;2024-01-16T12:39:09;94637.97;;;0.76;100.00
23589;BME280;11972;48.078;11.876;2024-01-16T12:43:12;94629.19;;;0.77;100.00
23589;BME280;11972;48.078;11.876;2024-01-16T12:47:15;94628.91;;;0.80;100.00
23589;BME280;11972;48.078;11.876;2024-01-16T12:51:21;94618.88;;;0.85;100.00
23589;BME280;11972;48.078;11.876;2024-01-16T12:55:23;94625.16;;;0.92;100.00
23589;BME280;11972;48.078;11.876;2024-01-16T12:59:27;94620.22;;;0.89;100.00
23589;BME280;11972;48.078;11.876;2024-01-16T13:03:30;94609.72;;;0.91;100.00
23589;BME280;11972;48.078;11.876;2024-01-16T13:07:30;94604.50;;;0.91;100.00
23589;BME280;11972;48.078;11.876;2024-01-16T13:11:44;94613.50;;;0.96;100.00
23589;BME280;11972;48.078;11.876;2024-01-16T13:15:45;94605.41;;;0.99;100.00
23589;BME280;11972;48.078;11.876;2024-01-16T13:19:45;94614.47;;;0.95;100.00
23589;BME280;11972;48.078;11.876;2024-01-16T13:23:46;94593.56;;;0.87;100.00
23589;BME280;11972;48.078;11.876;2024-01-16T13:27:46;94584.03;;;0.78;100.00
23589;BME280;11972;48.078;11.876;2024-01-16T13:31:47;94585.97;;;0.76;100.00
23589;BME280;11972;48.078;11.876;2024-01-16T13:35:48;94584.03;;;0.78;100.00
23589;BME280;11972;48.078;11.876;2024-01-16T13:39:48;94586.50;;;0.80;100.00
23589;BME280;11972;48.078;11.876;2024-01-16T13:43:49;94590.56;;;0.82;100.00
23589;BME280;11972;48.078;11.876;2024-01-16T13:47:52;94581.03;;;0.83;100.00
23589;BME280;11972;48.078;11.876;2024-01-16T13:51:52;94586.50;;;0.80;100.00
23589;BME280;11972;48.078;11.876;2024-01-16T13:55:53;94589.22;;;0.78;100.00
23589;BME280;11972;48.078;11.876;2024-01-16T13:59:53;94585.97;;;0.76;100.00
23589;BME280;11972;48.078;11.876;2024-01-16T14:03:53;94586.25;;;0.73;100.00
23589;BME280;11972;48.078;11.876;2024-01-16T14:07:53;94591.34;;;0.65;100.00
23589;BME280;11972;48.078;11.876;2024-01-16T14:11:54;94594.53;;;0.59;100.00
23589;BME280;11972;48.078;11.876;2024-01-16T14:15:54;94593.19;;;0.55;100.00
23589;BME280;11972;48.078;11.876;2024-01-16T14:19:55;94594.16;;;0.54;100.00
23589;BME280;11972;48.078;11.876;2024-01-16T14:23:55;94601.97;;;0.54;100.00
23589;BME280;11972;48.078;11.876;2024-01-16T14:27:57;94601.28;;;0.52;100.00
23589;BME280;11972;48.078;11.876;2024-01-16T14:31:58;94592.94;;;0.48;100.00
23589;BME280;11972;48.078;11.876;2024-01-16T14:35:58;94598.94;;;0.48;100.00
23589;BME280;11972;48.078;11.876;2024-01-16T14:39:59;94595.97;;;0.43;100.00
23589;BME280;11972;48.078;11.876;2024-01-16T14:44:03;94591.06;;;0.40;100.00
23589;BME280;11972;48.078;11.876;2024-01-16T14:48:06;94598.31;;;0.37;100.00
23589;BME280;11972;48.078;11.876;2024-01-16T14:52:06;94591.63;;;0.34;100.00
23589;BME280;11972;48.078;11.876;2024-01-16T14:56:07;94588.66;;;0.29;100.00
23589;BME280;11972;48.078;11.876;2024-01-16T15:00:10;94600.94;;;0.27;100.00
23589;BME280;11972;48.078;11.876;2024-01-16T15:04:31;94592.50;;;0.25;100.00
23589;BME280;11972;48.078;11.876;2024-01-16T15:08:31;94584.81;;;0.23;100.00
23589;BME280;11972;48.078;11.876;2024-01-16T15:12:32;94580.75;;;0.21;100.00
23589;BME280;11972;48.078;11.876;2024-01-16T15:16:33;94583.75;;;0.16;100.00
23589;BME280;11972;48.078;11.876;2024-01-16T15:20:33;94574.50;;;0.14;100.00
23589;BME280;11972;48.078;11.876;2024-01-16T15:24:33;94578.06;;;0.13;100.00
23589;BME280;11972;48.078;11.876;2024-01-16T15:28:34;94576.69;;;0.09;100.00
23589;BME280;11972;48.078;11.876;2024-01-16T15:32:34;94571.91;;;0.04;100.00
23589;BME280;11972;48.078;11.876;2024-01-16T15:36:35;94580.41;;;-0.04;100.00
23589;BME280;11972;48.078;11.876;2024-01-16T15:40:35;94578.94;;;-0.16;100.00
23589;BME280;11972;48.078;11.876;2024-01-16T15:44:35;94588.50;;;-0.26;100.00
23589;BME280;11972;48.078;11.876;2024-01-16T15:48:37;94586.34;;;-0.40;100.00
23589;BME280;11972;48.078;11.876;2024-01-16T15:52:37;94588.00;;;-0.49;100.00
23589;BME280;11972;48.078;11.876;2024-01-16T15:56:38;94581.97;;;-0.59;100.00
23589;BME280;11972;48.078;11.876;2024-01-16T16:00:58;94589.63;;;-0.77;100.00
23589;BME280;11972;48.078;11.876;2024-01-16T16:04:59;94593.84;;;-0.95;100.00
23589;BME280;11972;48.078;11.876;2024-01-16T16:08:59;94586.19;;;-1.16;100.00
23589;BME280;11972;48.078;11.876;2024-01-16T16:13:00;94582.16;;;-1.50;100.00
23589;BME280;11972;48.078;11.876;2024-01-16T16:17:01;94583.09;;;-1.81;100.00
23589;BME280;11972;48.078;11.876;2024-01-16T16:21:04;94595.72;;;-1.97;100.00
23589;BME280;11972;48.078;11.876;2024-01-16T16:25:05;94605.91;;;-2.06;100.00
23589;BME280;11972;48.078;11.876;2024-01-16T16:29:10;94609.69;;;-2.10;100.00
23589;BME280;11972;48.078;11.876;2024-01-16T16:33:10;94612.63;;;-2.14;100.00
23589;BME280;11972;48.078;11.876;2024-01-16T16:37:11;94612.59;;;-2.24;100.00
23589;BME280;11972;48.078;11.876;2024-01-16T16:41:11;94611.72;;;-2.34;100.00
23589;BME280;11972;48.078;11.876;2024-01-16T16:45:11;94614.03;;;-2.52;100.00
23589;BME280;11972;48.078;11.876;2024-01-16T16:49:12;94606.03;;;-2.81;100.00
23589;BME280;11972;48.078;11.876;2024-01-16T16:53:12;94616.00;;;-3.09;100.00
23589;BME280;11972;48.078;11.876;2024-01-16T16:57:13;94632.72;;;-3.35;100.00
23589;BME280;11972;48.078;11.876;2024-01-16T17:01:15;94631.09;;;-3.59;100.00
23589;BME280;11972;48.078;11.876;2024-01-16T17:05:15;94632.88;;;-3.82;100.00
23589;BME280;11972;48.078;11.876;2024-01-16T17:09:16;94633.66;;;-4.04;100.00
23589;BME280;11972;48.078;11.876;2024-01-16T17:13:19;94630.94;;;-4.25;100.00
23589;BME280;11972;48.078;11.876;2024-01-16T17:17:19;94638.50;;;-4.45;100.00
23589;BME280;11972;48.078;11.876;2024-01-16T17:21:20;94638.88;;;-4.74;100.00
23589;BME280;11972;48.078;11.876;2024-01-16T17:25:21;94640.22;;;-4.92;100.00
23589;BME280;11972;48.078;11.876;2024-01-16T17:29:21;94636.44;;;-5.00;100.00
23589;BME280;11972;48.078;11.876;2024-01-16T17:33:22;94639.88;;;-5.12;100.00
23589;BME280;11972;48.078;11.876;2024-01-16T17:37:22;94648.47;;;-5.24;100.00
23589;BME280;11972;48.078;11.876;2024-01-16T17:41:22;94646.56;;;-5.33;100.00
23589;BME280;11972;48.078;11.876;2024-01-16T17:45:26;94634.66;;;-5.47;100.00
23589;BME280;11972;48.078;11.876;2024-01-16T17:49:26;94634.47;;;-5.57;100.00
23589;BME280;11972;48.078;11.876;2024-01-16T17:53:27;94629.75;;;-5.63;100.00
23589;BME280;11972;48.078;11.876;2024-01-16T17:57:28;94628.75;;;-5.73;100.00
23589;BME280;11972;48.078;11.876;2024-01-16T18:01:28;94618.28;;;-5.83;100.00
23589;BME280;11972;48.078;11.876;2024-01-16T18:05:29;94629.56;;;-5.85;100.00
23589;BME280;11972;48.078;11.876;2024-01-16T18:09:29;94633.94;;;-5.98;100.00
23589;BME280;11972;48.078;11.876;2024-01-16T18:13:31;94634.78;;;-6.11;100.00
23589;BME280;11972;48.078;11.876;2024-01-16T18:17:31;94629.84;;;-6.27;100.00
23589;BME280;11972;48.078;11.876;2024-01-16T18:21:31;94641.16;;;-6.29;100.00
23589;BME280;11972;48.078;11.876;2024-01-16T18:25:35;94637.44;;;-6.38;100.00
23589;BME280;11972;48.078;11.876;2024-01-16T18:29:36;94628.91;;;-6.51;100.00
23589;BME280;11972;48.078;11.876;2024-01-16T18:33:37;94634.22;;;-6.67;100.00
23589;BME280;11972;48.078;11.876;2024-01-16T18:37:41;94632.84;;;-6.85;100.00
23589;BME280;11972;48.078;11.876;2024-01-16T18:41:49;94630.75;;;-7.06;100.00
23589;BME280;11972;48.078;11.876;2024-01-16T18:45:49;94623.53;;;-7.13;100.00
23589;BME280;11972;48.078;11.876;2024-01-16T18:49:51;94625.97;;;-7.12;100.00
23589;BME280;11972;48.078;11.876;2024-01-16T18:53:51;94616.28;;;-7.07;100.00
23589;BME280;11972;48.078;11.876;2024-01-16T18:57:53;94612.03;;;-7.08;100.00
23589;BME280;11972;48.078;11.876;2024-01-16T19:01:59;94619.41;;;-7.16;100.00
23589;BME280;11972;48.078;11.876;2024-01-16T19:06:00;94616.72;;;-7.27;100.00
23589;BME280;11972;48.078;11.876;2024-01-16T19:10:00;94611.25;;;-7.35;100.00
23589;BME280;11972;48.078;11.876;2024-01-16T19:14:01;94608.88;;;-7.38;100.00
23589;BME280;11972;48.078;11.876;2024-01-16T19:18:03;94610.25;;;-7.47;100.00
23589;BME280;11972;48.078;11.876;2024-01-16T19:22:05;94608.34;;;-7.58;100.00
23589;BME280;11972;48.078;11.876;2024-01-16T19:26:07;94605.25;;;-7.63;100.00
23589;BME280;11972;48.078;11.876;2024-01-16T19:30:08;94596.84;;;-7.65;100.00
23589;BME280;11972;48.078;11.876;2024-01-16T19:34:13;94591.72;;;-7.65;100.00
23589;BME280;11972;48.078;11.876;2024-01-16T19:38:14;94577.72;;;-7.74;100.00
23589;BME280;11972;48.078;11.876;2024-01-16T19:42:15;94573.50;;;-7.75;100.00
23589;BME280;11972;48.078;11.876;2024-01-16T19:46:15;94569.19;;;-7.74;100.00
23589;BME280;11972;48.078;11.876;2024-01-16T19:50:15;94582.84;;;-7.74;100.00
23589;BME280;11972;48.078;11.876;2024-01-16T19:54:19;94576.00;;;-7.73;100.00
23589;BME280;11972;48.078;11.876;2024-01-16T19:58:19;94563.06;;;-7.71;100.00
23589;BME280;11972;48.078;11.876;2024-01-16T20:02:19;94558.41;;;-7.79;100.00
23589;BME280;11972;48.078;11.876;2024-01-16T20:06:20;94559.00;;;-7.88;100.00
23589;BME280;11972;48.078;11.876;2024-01-16T20:10:20;94556.19;;;-7.98;100.00
23589;BME280;11972;48.078;11.876;2024-01-16T20:14:22;94549.69;;;-8.04;100.00
23589;BME280;11972;48.078;11.876;2024-01-16T20:18:23;94544.31;;;-8.13;100.00
23589;BME280;11972;48.078;11.876;2024-01-16T20:22:23;94538.38;;;-8.14;100.00
23589;BME280;11972;48.078;11.876;2024-01-16T20:26:23;94527.09;;;-8.11;100.00
23589;BME280;11972;48.078;11.876;2024-01-16T20:30:25;94523.00;;;-8.14;100.00
23589;BME280;11972;48.078;11.876;2024-01-16T20:34:26;94516.31;;;-8.16;100.00
23589;BME280;11972;48.078;11.876;2024-01-16T20:38:26;94507.97;;;-8.20;100.00
23589;BME280;11972;48.078;11.876;2024-01-16T20:42:26;94503.44;;;-8.29;100.00
23589;BME280;11972;48.078;11.876;2024-01-16T20:46:27;94503.09;;;-8.37;100.00
23589;BME280;11972;48.078;11.876;2024-01-16T20:50:28;94499.09;;;-8.41;100.00
23589;BME280;11972;48.078;11.876;2024-01-16T20:54:28;94503.66;;;-8.46;100.00
23589;BME280;11972;48.078;11.876;2024-01-16T20:58:29;94490.13;;;-8.48;100.00